EGTE/EXT METAR and TAF weather

Enter ICAO airport designator
Station Type Date Time Source
EGTE METAR 2021/09/24 01:20 UTC NOAA

EGTE 240120Z 06002KT 9999 FEW010 BKN018 12/12 Q1019


Station Type Date Time Source
EGTE Decoded METAR 2021/09/24 01:20 UTC NOAA

Exeter Airport, United Kingdom (EGTE) 50-44N 003-25W
Sep 23, 2021 - 09:20 PM EDT / 2021.09.24 0120 UTC
Wind: from the ENE (060 degrees) at 2 MPH (2 KT):0
Visibility: greater than 7 mile(s):0
Sky conditions: mostly cloudy
Temperature: 53 F (12 C)
Dew Point: 53 F (12 C)
Relative Humidity: 100%
Pressure (altimeter): 30.09 in. Hg (1019 hPa)
ob: EGTE 240120Z 06002KT 9999 FEW010 BKN018 12/12 Q1019
cycle: 1

Station Type Date Time Source
EGTE TAF 2012/04/19 12:15 UTC NOAA

TAF TAF EGTE 191401Z 1912/1924 31016KT 9999 SCT030 SCT035 PROB40
TEMPO 1915/1918 7000 SHRA BKN014

Example: see airport list